Time,TemperatureF,DewpointF,PressureIn,WindDirection,WindDirectionDegrees,WindSpeedMPH,WindSpeedGustMPH,Humidity,HourlyPrecipIn,Conditions,Clouds,dailyrainin,SoftwareType,DateUTC
2013-02-12 00:00:00,34.3,31.9,30.14,ESE,112,0.0,0.0,91,0.00,,,0.00,tws,2013-02-12 07:00:00,
2013-02-12 00:10:00,34.0,31.6,30.14,ENE,67,0.5,1.4,91,0.00,,,0.00,tws,2013-02-12 07:10:00,
2013-02-12 00:20:00,33.8,31.5,30.15,SE,135,1.4,2.9,91,0.00,,,0.00,tws,2013-02-12 07:20:00,
2013-02-12 00:30:00,33.8,31.7,30.15,North,0,0.0,0.0,91,0.00,,,0.00,tws,2013-02-12 07:30:00,
2013-02-12 00:40:00,34.0,31.9,30.15,NE,45,0.4,1.4,91,0.00,,,0.00,tws,2013-02-12 07:40:00,
2013-02-12 00:50:00,34.0,31.9,30.15,North,0,0.0,0.0,91,0.00,,,0.00,tws,2013-02-12 07:50:00,
2013-02-12 01:00:00,34.0,31.9,30.14,North,0,0.5,1.4,91,0.00,,,0.00,tws,2013-02-12 08:00:00,
2013-02-12 01:10:00,33.9,31.7,30.14,NE,45,0.4,1.2,91,0.00,,,0.00,tws,2013-02-12 08:10:00,
2013-02-12 01:20:00,33.7,31.6,30.14,ENE,67,0.5,2.4,91,0.00,,,0.00,tws,2013-02-12 08:20:00,
2013-02-12 01:30:00,33.7,31.5,30.15,NNE,22,0.0,0.0,91,0.00,,,0.00,tws,2013-02-12 08:30:00,
2013-02-12 01:40:00,33.7,31.7,30.15,SW,225,0.0,0.0,92,0.00,,,0.00,tws,2013-02-12 08:40:00,
2013-02-12 01:50:00,33.8,31.7,30.15,SW,225,0.0,0.0,91,0.00,,,0.00,tws,2013-02-12 08:50:00,
2013-02-12 02:00:00,33.7,31.7,30.16,SW,225,0.0,0.0,92,0.00,,,0.00,tws,2013-02-12 09:00:00,
2013-02-12 02:10:00,33.5,31.4,30.15,South,180,0.0,0.0,91,0.00,,,0.00,tws,2013-02-12 09:10:00,
2013-02-12 02:20:00,33.3,31.3,30.14,NW,315,0.0,0.0,92,0.00,,,0.00,tws,2013-02-12 09:20:00,
2013-02-12 02:30:00,33.1,31.1,30.15,NW,315,0.0,0.0,92,0.00,,,0.00,tws,2013-02-12 09:30:00,
2013-02-12 02:40:00,32.9,30.9,30.14,SW,225,0.0,0.0,91,0.00,,,0.00,tws,2013-02-12 09:40:00,
2013-02-12 02:50:00,32.8,31.0,30.14,SW,225,0.0,0.0,92,0.00,,,0.00,tws,2013-02-12 09:50:00,
2013-02-12 03:00:00,32.7,30.9,30.14,SW,225,1.2,2.2,92,0.00,,,0.00,tws,2013-02-12 10:00:00,
2013-02-12 03:10:00,32.6,30.7,30.15,WSW,247,2.0,2.8,92,0.00,,,0.00,tws,2013-02-12 10:10:00,
2013-02-12 03:20:00,32.6,30.7,30.14,West,270,2.1,3.2,92,0.00,,,0.00,tws,2013-02-12 10:20:00,
2013-02-12 03:30:00,32.6,30.7,30.15,SW,225,0.0,0.0,92,0.00,,,0.00,tws,2013-02-12 10:30:00,
2013-02-12 03:40:00,32.5,30.6,30.15,SW,225,0.0,0.0,92,0.00,,,0.00,tws,2013-02-12 10:40:00,
2013-02-12 03:50:00,32.3,30.3,30.14,South,180,0.0,0.0,92,0.00,,,0.00,tws,2013-02-12 10:50:00,
2013-02-12 04:00:00,32.2,30.4,30.14,North,0,0.0,0.0,92,0.00,,,0.00,tws,2013-02-12 11:00:00,
2013-02-12 04:10:00,32.2,30.4,30.15,North,0,0.5,1.3,92,0.00,,,0.00,tws,2013-02-12 11:10:00,
2013-02-12 04:20:00,32.1,30.2,30.15,NW,315,1.5,2.1,92,0.00,,,0.00,tws,2013-02-12 11:20:00,
2013-02-12 04:30:00,32.0,30.2,30.15,NW,315,0.6,1.7,92,0.00,,,0.00,tws,2013-02-12 11:30:00,
2013-02-12 04:40:00,32.0,30.2,30.15,NW,315,2.1,2.8,93,0.00,,,0.00,tws,2013-02-12 11:40:00,
2013-02-12 04:50:00,31.9,30.0,30.15,NW,315,2.0,2.9,92,0.00,,,0.00,tws,2013-02-12 11:50:00,
2013-02-12 05:00:00,31.7,29.9,30.15,NW,315,1.5,2.1,92,0.00,,,0.00,tws,2013-02-12 12:00:00,
2013-02-12 05:10:00,31.6,29.8,30.16,NW,315,0.6,1.9,92,0.00,,,0.00,tws,2013-02-12 12:10:00,
2013-02-12 05:20:00,31.5,29.8,30.15,NW,315,0.0,0.0,93,0.00,,,0.00,tws,2013-02-12 12:20:00,
2013-02-12 05:30:00,31.4,29.7,30.16,NW,315,1.7,2.0,93,0.00,,,0.00,tws,2013-02-12 12:30:00,
2013-02-12 05:40:00,31.3,29.6,30.17,NW,315,1.9,2.3,93,0.00,,,0.00,tws,2013-02-12 12:40:00,
2013-02-12 05:50:00,31.3,29.6,30.17,NW,315,2.5,2.9,93,0.00,,,0.00,tws,2013-02-12 12:50:00,
2013-02-12 06:00:00,31.3,29.6,30.17,NW,315,2.5,3.0,93,0.00,,,0.00,tws,2013-02-12 13:00:00,
2013-02-12 06:10:00,31.2,29.5,30.17,NW,315,3.0,3.6,93,0.00,,,0.00,tws,2013-02-12 13:10:00,
2013-02-12 06:20:00,31.1,29.5,30.18,NW,315,3.3,4.4,93,0.00,,,0.00,tws,2013-02-12 13:20:00,
2013-02-12 06:30:00,31.0,29.3,30.17,NW,315,3.4,3.9,93,0.00,,,0.00,tws,2013-02-12 13:30:00,
2013-02-12 06:40:00,30.8,29.1,30.18,NW,315,3.2,3.8,93,0.00,,,0.00,tws,2013-02-12 13:40:00,
2013-02-12 06:50:00,30.8,29.0,30.19,NW,315,3.2,3.7,93,0.00,,,0.00,tws,2013-02-12 13:50:00,
2013-02-12 07:00:00,30.8,29.1,30.18,NW,315,2.8,3.4,93,0.00,,,0.00,tws,2013-02-12 14:00:00,
2013-02-12 07:10:00,30.8,29.1,30.19,NW,315,2.6,3.4,93,0.00,,,0.00,tws,2013-02-12 14:10:00,
2013-02-12 07:20:00,30.8,29.1,30.20,NW,315,2.4,2.9,93,0.00,,,0.00,tws,2013-02-12 14:20:00,
2013-02-12 07:30:00,30.9,29.2,30.20,NW,315,3.8,4.9,93,0.00,,,0.00,tws,2013-02-12 14:30:00,
2013-02-12 07:40:00,30.9,29.4,30.20,NW,315,4.4,5.2,93,0.00,,,0.00,tws,2013-02-12 14:40:00,
2013-02-12 07:50:00,31.1,29.6,30.21,NW,315,3.6,4.3,94,0.00,,,0.00,tws,2013-02-12 14:50:00,
2013-02-12 08:00:00,31.4,29.9,30.21,NE,45,1.2,2.6,94,0.00,,,0.00,tws,2013-02-12 15:00:00,
2013-02-12 08:10:00,31.9,30.5,30.21,North,0,0.7,1.6,94,0.00,,,0.00,tws,2013-02-12 15:10:00,
2013-02-12 08:20:00,32.6,31.1,30.22,NW,315,1.5,2.3,94,0.00,,,0.00,tws,2013-02-12 15:20:00,
2013-02-12 08:30:00,33.6,32.3,30.22,NW,315,1.2,2.2,94,0.00,,,0.00,tws,2013-02-12 15:30:00,
2013-02-12 08:40:00,34.9,33.5,30.22,NW,315,2.0,3.1,94,0.00,,,0.00,tws,2013-02-12 15:40:00,
2013-02-12 08:50:00,36.5,35.2,30.23,NNE,22,1.6,2.3,95,0.00,,,0.00,tws,2013-02-12 15:50:00,
2013-02-12 09:00:00,38.4,37.0,30.24,East,90,1.3,2.8,94,0.00,,,0.00,tws,2013-02-12 16:00:00,
2013-02-12 09:10:00,40.0,38.1,30.24,East,90,2.5,4.0,92,0.00,,,0.00,tws,2013-02-12 16:10:00,
2013-02-12 09:20:00,41.0,38.8,30.24,SE,135,2.4,3.6,91,0.00,,,0.00,tws,2013-02-12 16:20:00,
2013-02-12 09:30:00,42.2,39.5,30.24,East,90,2.4,4.1,89,0.00,,,0.00,tws,2013-02-12 16:30:00,
2013-02-12 09:40:00,43.1,39.8,30.25,SE,135,2.9,3.7,88,0.00,,,0.00,tws,2013-02-12 16:40:00,
2013-02-12 09:50:00,43.7,39.8,30.24,SSE,157,2.8,3.9,85,0.00,,,0.00,tws,2013-02-12 16:50:00,
2013-02-12 10:00:00,43.7,39.1,30.25,ENE,67,3.6,3.9,83,0.00,,,0.00,tws,2013-02-12 17:00:00,
2013-02-12 10:10:00,44.1,39.0,30.25,East,90,3.0,4.5,82,0.00,,,0.00,tws,2013-02-12 17:10:00,
2013-02-12 10:20:00,45.0,39.1,30.26,East,90,2.8,4.2,79,0.00,,,0.00,tws,2013-02-12 17:20:00,
2013-02-12 10:30:00,44.9,38.3,30.25,ESE,112,3.3,4.2,77,0.00,,,0.00,tws,2013-02-12 17:30:00,
2013-02-12 10:50:00,45.4,38.5,30.26,NNW,337,3.2,4.7,76,0.00,,,0.00,tws,2013-02-12 17:50:00,
2013-02-12 11:00:00,45.9,38.2,30.26,East,90,3.4,6.1,74,0.00,,,0.00,tws,2013-02-12 18:00:00,
2013-02-12 11:10:00,46.5,38.4,30.26,East,90,2.6,4.5,73,0.00,,,0.00,tws,2013-02-12 18:10:00,
2013-02-12 11:20:00,47.6,38.4,30.26,ESE,112,2.6,4.0,70,0.00,,,0.00,tws,2013-02-12 18:20:00,
2013-02-12 11:30:00,48.0,37.8,30.26,ESE,112,2.9,4.0,67,0.00,,,0.00,tws,2013-02-12 18:30:00,
2013-02-12 11:40:00,48.0,37.3,30.25,SE,135,2.4,3.4,66,0.00,,,0.00,tws,2013-02-12 18:40:00,
2013-02-12 11:50:00,47.9,37.0,30.25,North,0,2.2,3.3,65,0.00,,,0.00,tws,2013-02-12 18:50:00,
2013-02-12 12:00:00,47.3,35.7,30.24,ESE,112,1.8,3.8,63,0.00,,,0.00,tws,2013-02-12 19:00:00,
2013-02-12 12:10:00,46.8,35.3,30.24,NE,45,2.6,4.2,64,0.00,,,0.00,tws,2013-02-12 19:10:00,
2013-02-12 12:20:00,47.2,36.1,30.23,SE,135,2.9,4.4,65,0.00,,,0.00,tws,2013-02-12 19:20:00,
2013-02-12 12:30:00,47.8,36.3,30.23,East,90,2.7,3.8,64,0.00,,,0.00,tws,2013-02-12 19:30:00,
2013-02-12 12:40:00,48.5,36.6,30.22,South,180,3.2,4.8,63,0.00,,,0.00,tws,2013-02-12 19:40:00,
2013-02-12 12:50:00,49.0,36.0,30.22,SW,225,2.6,6.0,60,0.00,,,0.00,tws,2013-02-12 19:50:00,
2013-02-12 13:00:00,48.9,35.4,30.22,South,180,4.8,8.0,59,0.00,,,0.00,tws,2013-02-12 20:00:00,
2013-02-12 13:10:00,48.2,34.7,30.21,SE,135,4.1,5.8,59,0.00,,,0.00,tws,2013-02-12 20:10:00,
2013-02-12 13:20:00,47.6,34.1,30.20,SSE,157,3.7,5.4,59,0.00,,,0.00,tws,2013-02-12 20:20:00,
2013-02-12 13:30:00,47.9,34.5,30.20,SW,225,3.4,5.3,59,0.00,,,0.00,tws,2013-02-12 20:30:00,
2013-02-12 13:40:00,48.4,35.1,30.19,SW,225,3.3,4.8,59,0.00,,,0.00,tws,2013-02-12 20:40:00,
2013-02-12 13:50:00,49.2,35.7,30.20,SW,225,4.5,7.2,59,0.00,,,0.00,tws,2013-02-12 20:50:00,
2013-02-12 14:00:00,49.2,35.3,30.19,SSW,202,6.2,9.6,58,0.00,,,0.00,tws,2013-02-12 21:00:00,
2013-02-12 14:10:00,48.6,34.6,30.18,South,180,5.9,8.9,58,0.00,,,0.00,tws,2013-02-12 21:10:00,
2013-02-12 14:20:00,48.3,34.6,30.18,SW,225,5.5,8.0,58,0.00,,,0.00,tws,2013-02-12 21:20:00,
2013-02-12 14:30:00,49.0,35.2,30.18,South,180,5.4,10.3,58,0.00,,,0.00,tws,2013-02-12 21:30:00,
2013-02-12 14:40:00,49.7,35.2,30.17,SE,135,5.3,8.0,57,0.00,,,0.00,tws,2013-02-12 21:40:00,
2013-02-12 14:50:00,50.3,35.7,30.17,South,180,5.3,8.9,56,0.00,,,0.00,tws,2013-02-12 21:50:00,
2013-02-12 15:00:00,51.0,35.5,30.16,South,180,5.9,7.3,55,0.00,,,0.00,tws,2013-02-12 22:00:00,
2013-02-12 15:10:00,51.1,35.0,30.17,ESE,112,5.7,7.7,53,0.00,,,0.00,tws,2013-02-12 22:10:00,
2013-02-12 15:20:00,51.5,35.3,30.16,SW,225,5.6,7.1,53,0.00,,,0.00,tws,2013-02-12 22:20:00,
2013-02-12 15:30:00,52.2,35.0,30.15,South,180,5.6,7.7,51,0.00,,,0.00,tws,2013-02-12 22:30:00,
2013-02-12 15:40:00,52.4,34.4,30.15,SW,225,6.7,9.2,50,0.00,,,0.00,tws,2013-02-12 22:40:00,
2013-02-12 15:50:00,51.7,33.6,30.16,South,180,5.5,6.8,49,0.00,,,0.00,tws,2013-02-12 22:50:00,
2013-02-12 16:00:00,51.7,33.6,30.15,South,180,6.5,9.4,49,0.00,,,0.00,tws,2013-02-12 23:00:00,
2013-02-12 16:10:00,52.2,33.4,30.15,South,180,7.6,10.2,48,0.00,,,0.00,tws,2013-02-12 23:10:00,
2013-02-12 16:20:00,52.6,32.9,30.15,South,180,6.5,9.0,46,0.00,,,0.00,tws,2013-02-12 23:20:00,
2013-02-12 16:30:00,52.9,32.7,30.14,South,180,6.1,10.1,45,0.00,,,0.00,tws,2013-02-12 23:30:00,
2013-02-12 16:40:00,52.9,32.6,30.15,SW,225,5.7,8.8,45,0.00,,,0.00,tws,2013-02-12 23:40:00,
2013-02-12 16:50:00,52.6,31.9,30.15,SW,225,5.3,8.0,44,0.00,,,0.00,tws,2013-02-12 23:50:00,
2013-02-12 17:00:00,52.5,31.4,30.14,SSW,202,4.6,6.2,44,0.00,,,0.00,tws,2013-02-13 00:00:00,
2013-02-12 17:10:00,52.0,30.9,30.15,SW,225,4.9,5.9,44,0.00,,,0.00,tws,2013-02-13 00:10:00,
2013-02-12 17:20:00,51.7,30.8,30.15,West,270,4.3,7.2,44,0.00,,,0.00,tws,2013-02-13 00:20:00,
2013-02-12 17:30:00,51.4,30.6,30.15,SW,225,4.8,7.3,44,0.00,,,0.00,tws,2013-02-13 00:30:00,
2013-02-12 17:40:00,50.8,30.2,30.16,SW,225,4.2,5.6,44,0.00,,,0.00,tws,2013-02-13 00:40:00,
2013-02-12 17:50:00,50.1,29.7,30.16,SW,225,5.0,7.2,45,0.00,,,0.00,tws,2013-02-13 00:50:00,
2013-02-12 18:00:00,49.4,29.2,30.15,SW,225,4.4,5.9,45,0.00,,,0.00,tws,2013-02-13 01:00:00,
2013-02-12 18:10:00,48.8,29.0,30.16,SSW,202,3.0,3.6,46,0.00,,,0.00,tws,2013-02-13 01:10:00,
2013-02-12 18:20:00,48.2,28.9,30.16,South,180,4.9,5.7,46,0.00,,,0.00,tws,2013-02-13 01:20:00,
2013-02-12 18:30:00,47.4,28.7,30.17,SW,225,4.8,6.4,47,0.00,,,0.00,tws,2013-02-13 01:30:00,
2013-02-12 18:40:00,46.8,28.6,30.17,SW,225,3.8,5.0,48,0.00,,,0.00,tws,2013-02-13 01:40:00,
2013-02-12 18:50:00,46.3,28.6,30.17,SW,225,2.6,3.5,49,0.00,,,0.00,tws,2013-02-13 01:50:00,
2013-02-12 19:00:00,45.8,28.9,30.17,North,0,1.5,2.0,51,0.00,,,0.00,tws,2013-02-13 02:00:00,
2013-02-12 19:10:00,45.4,29.4,30.18,ENE,67,0.2,1.1,53,0.00,,,0.00,tws,2013-02-13 02:10:00,
2013-02-12 19:20:00,44.8,29.6,30.18,NE,45,2.4,3.9,54,0.00,,,0.00,tws,2013-02-13 02:20:00,
2013-02-12 19:30:00,44.3,29.6,30.19,North,0,3.3,4.4,55,0.00,,,0.00,tws,2013-02-13 02:30:00,
2013-02-12 19:40:00,43.9,29.5,30.19,North,0,0.9,2.0,56,0.00,,,0.00,tws,2013-02-13 02:40:00,
2013-02-12 19:50:00,43.5,29.4,30.19,North,0,2.2,2.9,57,0.00,,,0.00,tws,2013-02-13 02:50:00,
2013-02-12 20:00:00,43.0,29.3,30.19,NW,315,3.3,4.8,57,0.00,,,0.00,tws,2013-02-13 03:00:00,
2013-02-12 20:10:00,42.7,29.3,30.20,NW,315,3.1,4.5,58,0.00,,,0.00,tws,2013-02-13 03:10:00,
2013-02-12 20:20:00,42.5,29.2,30.20,NW,315,4.1,5.3,59,0.00,,,0.00,tws,2013-02-13 03:20:00,
2013-02-12 20:30:00,42.4,29.0,30.19,NW,315,4.5,5.3,58,0.00,,,0.00,tws,2013-02-13 03:30:00,
2013-02-12 20:40:00,42.2,29.0,30.20,NNW,337,4.5,5.9,59,0.00,,,0.00,tws,2013-02-13 03:40:00,
2013-02-12 20:50:00,42.2,29.1,30.19,NW,315,4.4,5.3,59,0.00,,,0.00,tws,2013-02-13 03:50:00,
2013-02-12 21:00:00,42.0,28.9,30.19,NW,315,4.3,6.2,59,0.00,,,0.00,tws,2013-02-13 04:00:00,
2013-02-12 21:10:00,41.7,28.7,30.20,NW,315,4.3,4.8,59,0.00,,,0.00,tws,2013-02-13 04:10:00,
2013-02-12 21:20:00,41.5,28.6,30.19,NW,315,4.2,5.1,59,0.00,,,0.00,tws,2013-02-13 04:20:00,
2013-02-12 21:30:00,41.2,28.4,30.20,NW,315,4.6,5.9,60,0.00,,,0.00,tws,2013-02-13 04:30:00,
2013-02-12 21:40:00,41.0,28.3,30.21,NW,315,5.0,6.0,60,0.00,,,0.00,tws,2013-02-13 04:40:00,
2013-02-12 21:50:00,40.8,28.1,30.20,NW,315,5.3,6.5,60,0.00,,,0.00,tws,2013-02-13 04:50:00,
2013-02-12 22:00:00,40.7,28.1,30.20,West,270,3.7,4.9,60,0.00,,,0.00,tws,2013-02-13 05:00:00,
2013-02-12 22:10:00,40.4,27.6,30.20,NW,315,4.6,6.2,60,0.00,,,0.00,tws,2013-02-13 05:10:00,
2013-02-12 22:20:00,40.2,27.7,30.21,NW,315,4.7,6.0,60,0.00,,,0.00,tws,2013-02-13 05:20:00,
2013-02-12 22:30:00,40.0,27.5,30.21,NW,315,5.2,6.5,60,0.00,,,0.00,tws,2013-02-13 05:30:00,
2013-02-12 22:40:00,39.7,27.4,30.20,WNW,292,4.7,5.8,61,0.00,,,0.00,tws,2013-02-13 05:40:00,
2013-02-12 22:50:00,39.2,27.1,30.20,NW,315,4.7,5.7,61,0.00,,,0.00,tws,2013-02-13 05:50:00,
2013-02-12 23:00:00,39.0,27.0,30.20,WNW,292,4.3,5.5,61,0.00,,,0.00,tws,2013-02-13 06:00:00,
2013-02-12 23:10:00,39.0,27.0,30.19,NW,315,4.4,5.2,61,0.00,,,0.00,tws,2013-02-13 06:10:00,
2013-02-12 23:20:00,39.0,27.1,30.19,NW,315,5.2,6.1,62,0.00,,,0.00,tws,2013-02-13 06:20:00,
2013-02-12 23:30:00,39.1,27.0,30.18,West,270,5.2,6.3,61,0.00,,,0.00,tws,2013-02-13 06:30:00,
2013-02-12 23:40:00,39.1,27.0,30.19,NW,315,5.2,6.1,61,0.00,,,0.00,tws,2013-02-13 06:40:00,
2013-02-12 23:50:00,39.2,27.0,30.18,NW,315,5.7,6.8,61,0.00,,,0.00,tws,2013-02-13 06:50:00,